Jack Holland — WDF3615 — position and weather

sailwx.info

Track history (hours):
 
Tides and Currents Weather Stations Pressure Air Temp Water Temp Dewpoint Dewpoint Depression Visibility Wind Speed Wind Dir Waves Ship Positions

Jack Holland

Owner: Norfolk Tug Company, Norfolk, VA. More information available from US FCC via Universal Licensing System and Coast Guard Vessel Documentation Center.

Last reported at 2017-Mar-23 13:33 UTC. Time now 2017-Mar-23 14:29 UTC.
Position N 36°46' W 076°18'.

Length 22 m; draft 2.5 m.

Type: Tug. MMSI: 367442020.

Date/timePositionNaut miles runAvg speedWind from/ knotsBaromVisibWave heightAir tempDewpointWater temp
2017-Mar-23 13:33N 36°46' W 076°18'0 0.0
2017-Mar-23 12:33N 36°46' W 076°18'0 0.0
2017-Mar-23 11:33N 36°46' W 076°18'0 0.0
2017-Mar-23 10:33N 36°46' W 076°18'0 0.0
2017-Mar-23 09:33N 36°46' W 076°18'0 0.3
2017-Mar-23 08:33N 36°46' W 076°18'4 4.0
2017-Mar-23 07:33N 36°50' W 076°18'7 6.2
2017-Mar-23 06:31N 36°56' W 076°20'4 0.1
2017-Mar-21 22:24N 36°53' W 076°20'5 6.6
2017-Mar-21 21:33N 36°48' W 076°18'2 1.6
2017-Mar-21 20:33N 36°46' W 076°18'0 0.0
2017-Mar-21 19:33N 36°46' W 076°18'0 0.0
2017-Mar-21 18:33N 36°46' W 076°18'0 0.0
2017-Mar-21 17:33N 36°46' W 076°18'0 0.0
2017-Mar-21 16:33N 36°46' W 076°18'0 0.1
2017-Mar-21 15:33N 36°46' W 076°18'6 5.8
2017-Mar-21 14:33N 36°52' W 076°19'4 1.9
2017-Mar-21 12:24N 36°56' W 076°20'4 4.5
2017-Mar-21 11:33N 36°52' W 076°20'6 6.3
2017-Mar-21 10:33N 36°46' W 076°18'0 0.0
2017-Mar-21 09:33N 36°46' W 076°18'0 0.0
2017-Mar-21 08:33N 36°46' W 076°18'1 0.6
2017-Mar-21 07:33N 36°47' W 076°18'5 5.1
2017-Mar-21 06:33N 36°52' W 076°19'1 0.0
2017-Mar-19 22:33N 36°52' W 076°20'4 3.6
2017-Mar-19 21:33N 36°50' W 076°16'0 0.0
2017-Mar-19 20:33N 36°50' W 076°16'0 0.0
2017-Mar-19 19:33N 36°50' W 076°16'0 0.0
2017-Mar-19 18:33N 36°50' W 076°16'0 0.0
2017-Mar-19 17:33N 36°50' W 076°16'0 0.0
2017-Mar-19 16:32N 36°50' W 076°16'0 0.0
2017-Mar-19 15:33N 36°50' W 076°16'0 0.0
2017-Mar-19 14:33N 36°50' W 076°16'0 0.0
2017-Mar-19 13:33N 36°50' W 076°16'0 0.0
2017-Mar-19 12:33N 36°50' W 076°16'0 0.0
2017-Mar-19 11:33N 36°50' W 076°16'0 0.0
2017-Mar-19 10:33N 36°50' W 076°16'0 0.0
2017-Mar-19 09:33N 36°50' W 076°16'0 0.0
2017-Mar-19 08:33N 36°50' W 076°16'0 0.0
2017-Mar-19 07:33N 36°50' W 076°16'0 0.0
2017-Mar-19 06:33N 36°50' W 076°16'0 0.0
2017-Mar-19 05:33N 36°50' W 076°16'0 0.0
2017-Mar-19 04:33N 36°50' W 076°16'0 0.0
2017-Mar-19 03:33N 36°50' W 076°16'0 0.0
2017-Mar-19 02:33N 36°50' W 076°16'0 0.0
2017-Mar-19 01:33N 36°50' W 076°16'0 0.0
2017-Mar-19 00:33N 36°50' W 076°16'0 0.0
2017-Mar-18 23:33N 36°50' W 076°16'0 0.0
2017-Mar-18 22:33N 36°50' W 076°16'0 0.0
2017-Mar-18 21:33N 36°50' W 076°16'0 0.0
2017-Mar-18 20:33N 36°50' W 076°16'0 0.0
2017-Mar-18 19:33N 36°50' W 076°16'0 0.0
2017-Mar-18 18:33N 36°50' W 076°16'0 0.0
2017-Mar-18 17:33N 36°50' W 076°16'0 0.0
2017-Mar-18 16:33N 36°50' W 076°16'0 0.0
2017-Mar-18 15:33N 36°50' W 076°16'0 0.0
2017-Mar-18 14:33N 36°50' W 076°16'0 0.0
2017-Mar-18 13:33N 36°50' W 076°16'0 0.0
2017-Mar-18 12:32N 36°50' W 076°16'0 0.0
2017-Mar-18 11:33N 36°50' W 076°16'0 0.0
2017-Mar-18 10:33N 36°50' W 076°16'1 0.8
2017-Mar-18 09:33N 36°50' W 076°17'5 5.1
2017-Mar-18 08:32N 36°55' W 076°20'1 0.0
2017-Mar-17 00:17N 36°56' W 076°20'5 7.3
2017-Mar-16 23:33N 36°51' W 076°18'2 1.7
2017-Mar-16 22:33N 36°50' W 076°16'1 1.3
2017-Mar-16 21:33N 36°49' W 076°17'1 1.4
2017-Mar-16 20:33N 36°50' W 076°16'0 0.2
2017-Mar-16 19:32N 36°50' W 076°16'0 0.0
2017-Mar-16 18:33N 36°50' W 076°16'0 0.1
2017-Mar-16 17:33N 36°50' W 076°16'0 0.0
2017-Mar-16 16:33N 36°50' W 076°16'0 0.0
2017-Mar-16 15:34N 36°50' W 076°16'0 0.0
2017-Mar-16 14:34N 36°50' W 076°16'0 0.0
2017-Mar-16 13:33N 36°50' W 076°16'1 0.7
2017-Mar-16 12:33N 36°50' W 076°17'6 5.5
2017-Mar-16 11:31N 36°56' W 076°20'3 0.1
2017-Mar-14 22:33N 36°53' W 076°20'4 4.0
2017-Mar-14 21:33N 36°50' W 076°16'0 0.0
2017-Mar-14 20:33N 36°50' W 076°16'0 0.0
2017-Mar-14 19:33N 36°50' W 076°16'0 0.0
2017-Mar-14 18:33N 36°50' W 076°16'0 0.0
2017-Mar-14 17:33N 36°50' W 076°16'0 0.0
2017-Mar-14 16:33N 36°50' W 076°16'0 0.0
2017-Mar-14 15:33N 36°50' W 076°16'0 0.0
2017-Mar-14 14:33N 36°50' W 076°16'0 0.0
2017-Mar-14 13:33N 36°50' W 076°16'0 0.0
2017-Mar-14 12:33N 36°50' W 076°16'0 0.0
2017-Mar-14 11:33N 36°50' W 076°16'0 0.0
2017-Mar-14 10:33N 36°50' W 076°16'0 0.0
2017-Mar-14 09:33N 36°50' W 076°16'0 0.1
2017-Mar-14 08:33N 36°50' W 076°16'  
Track history (hours):
 
Tides and Currents Weather Stations Pressure Air Temp Water Temp Dewpoint Dewpoint Depression Visibility Wind Speed Wind Dir Waves Ship Positions

Jack Holland

Owner: Norfolk Tug Company, Norfolk, VA. More information available from US FCC via Universal Licensing System and Coast Guard Vessel Documentation Center.

Last reported at 2017-Mar-23 13:33 UTC. Time now 2017-Mar-23 14:29 UTC.
Position N 36°46' W 076°18'.

Length 22 m; draft 2.5 m.

Type: Tug. MMSI: 367442020.

Date/timePositionNaut miles runAvg speedWind from/ knotsBaromVisibWave heightAir tempDewpointWater temp
2017-Mar-23 13:33N 36°46' W 076°18'0 0.0
2017-Mar-23 12:33N 36°46' W 076°18'0 0.0
2017-Mar-23 11:33N 36°46' W 076°18'0 0.0
2017-Mar-23 10:33N 36°46' W 076°18'0 0.0
2017-Mar-23 09:33N 36°46' W 076°18'0 0.3
2017-Mar-23 08:33N 36°46' W 076°18'4 4.0
2017-Mar-23 07:33N 36°50' W 076°18'7 6.2
2017-Mar-23 06:31N 36°56' W 076°20'4 0.1
2017-Mar-21 22:24N 36°53' W 076°20'5 6.6
2017-Mar-21 21:33N 36°48' W 076°18'2 1.6
2017-Mar-21 20:33N 36°46' W 076°18'0 0.0
2017-Mar-21 19:33N 36°46' W 076°18'0 0.0
2017-Mar-21 18:33N 36°46' W 076°18'0 0.0
2017-Mar-21 17:33N 36°46' W 076°18'0 0.0
2017-Mar-21 16:33N 36°46' W 076°18'0 0.1
2017-Mar-21 15:33N 36°46' W 076°18'6 5.8
2017-Mar-21 14:33N 36°52' W 076°19'4 1.9
2017-Mar-21 12:24N 36°56' W 076°20'4 4.5
2017-Mar-21 11:33N 36°52' W 076°20'6 6.3
2017-Mar-21 10:33N 36°46' W 076°18'0 0.0
2017-Mar-21 09:33N 36°46' W 076°18'0 0.0
2017-Mar-21 08:33N 36°46' W 076°18'1 0.6
2017-Mar-21 07:33N 36°47' W 076°18'5 5.1
2017-Mar-21 06:33N 36°52' W 076°19'1 0.0
2017-Mar-19 22:33N 36°52' W 076°20'4 3.6
2017-Mar-19 21:33N 36°50' W 076°16'0 0.0
2017-Mar-19 20:33N 36°50' W 076°16'0 0.0
2017-Mar-19 19:33N 36°50' W 076°16'0 0.0
2017-Mar-19 18:33N 36°50' W 076°16'0 0.0
2017-Mar-19 17:33N 36°50' W 076°16'0 0.0
2017-Mar-19 16:32N 36°50' W 076°16'0 0.0
2017-Mar-19 15:33N 36°50' W 076°16'0 0.0
2017-Mar-19 14:33N 36°50' W 076°16'0 0.0
2017-Mar-19 13:33N 36°50' W 076°16'0 0.0
2017-Mar-19 12:33N 36°50' W 076°16'0 0.0
2017-Mar-19 11:33N 36°50' W 076°16'0 0.0
2017-Mar-19 10:33N 36°50' W 076°16'0 0.0
2017-Mar-19 09:33N 36°50' W 076°16'0 0.0
2017-Mar-19 08:33N 36°50' W 076°16'0 0.0
2017-Mar-19 07:33N 36°50' W 076°16'0 0.0
2017-Mar-19 06:33N 36°50' W 076°16'0 0.0
2017-Mar-19 05:33N 36°50' W 076°16'0 0.0
2017-Mar-19 04:33N 36°50' W 076°16'0 0.0
2017-Mar-19 03:33N 36°50' W 076°16'0 0.0
2017-Mar-19 02:33N 36°50' W 076°16'0 0.0
2017-Mar-19 01:33N 36°50' W 076°16'0 0.0
2017-Mar-19 00:33N 36°50' W 076°16'0 0.0
2017-Mar-18 23:33N 36°50' W 076°16'0 0.0
2017-Mar-18 22:33N 36°50' W 076°16'0 0.0
2017-Mar-18 21:33N 36°50' W 076°16'0 0.0
2017-Mar-18 20:33N 36°50' W 076°16'0 0.0
2017-Mar-18 19:33N 36°50' W 076°16'0 0.0
2017-Mar-18 18:33N 36°50' W 076°16'0 0.0
2017-Mar-18 17:33N 36°50' W 076°16'0 0.0
2017-Mar-18 16:33N 36°50' W 076°16'0 0.0
2017-Mar-18 15:33N 36°50' W 076°16'0 0.0
2017-Mar-18 14:33N 36°50' W 076°16'0 0.0
2017-Mar-18 13:33N 36°50' W 076°16'0 0.0
2017-Mar-18 12:32N 36°50' W 076°16'0 0.0
2017-Mar-18 11:33N 36°50' W 076°16'0 0.0
2017-Mar-18 10:33N 36°50' W 076°16'1 0.8
2017-Mar-18 09:33N 36°50' W 076°17'5 5.1
2017-Mar-18 08:32N 36°55' W 076°20'1 0.0
2017-Mar-17 00:17N 36°56' W 076°20'5 7.3
2017-Mar-16 23:33N 36°51' W 076°18'2 1.7
2017-Mar-16 22:33N 36°50' W 076°16'1 1.3
2017-Mar-16 21:33N 36°49' W 076°17'1 1.4
2017-Mar-16 20:33N 36°50' W 076°16'0 0.2
2017-Mar-16 19:32N 36°50' W 076°16'0 0.0
2017-Mar-16 18:33N 36°50' W 076°16'0 0.1
2017-Mar-16 17:33N 36°50' W 076°16'0 0.0
2017-Mar-16 16:33N 36°50' W 076°16'0 0.0
2017-Mar-16 15:34N 36°50' W 076°16'0 0.0
2017-Mar-16 14:34N 36°50' W 076°16'0 0.0
2017-Mar-16 13:33N 36°50' W 076°16'1 0.7
2017-Mar-16 12:33N 36°50' W 076°17'6 5.5
2017-Mar-16 11:31N 36°56' W 076°20'3 0.1
2017-Mar-14 22:33N 36°53' W 076°20'4 4.0
2017-Mar-14 21:33N 36°50' W 076°16'0 0.0
2017-Mar-14 20:33N 36°50' W 076°16'0 0.0
2017-Mar-14 19:33N 36°50' W 076°16'0 0.0
2017-Mar-14 18:33N 36°50' W 076°16'0 0.0
2017-Mar-14 17:33N 36°50' W 076°16'0 0.0
2017-Mar-14 16:33N 36°50' W 076°16'0 0.0
2017-Mar-14 15:33N 36°50' W 076°16'0 0.0
2017-Mar-14 14:33N 36°50' W 076°16'0 0.0
2017-Mar-14 13:33N 36°50' W 076°16'0 0.0
2017-Mar-14 12:33N 36°50' W 076°16'0 0.0
2017-Mar-14 11:33N 36°50' W 076°16'0 0.0
2017-Mar-14 10:33N 36°50' W 076°16'0 0.0
2017-Mar-14 09:33N 36°50' W 076°16'0 0.1
2017-Mar-14 08:33N 36°50' W 076°16'  

Dump ship's entire track history